Time,TemperatureF,DewpointF,PressureIn,WindDirection,WindDirectionDegrees,WindSpeedMPH,WindSpeedGustMPH,Humidity,HourlyPrecipIn,Conditions,Clouds,dailyrainin,SoftwareType,DateUTC
2014-12-19 00:00:00,50.5,48.9,26.85,NW,315,0.0,-999.0,94,-99.99,,,1.38,meteohub,2014-12-19 05:00:00,
2014-12-19 00:05:00,50.5,48.9,26.84,NW,315,0.0,-999.0,94,-99.99,,,1.38,meteohub,2014-12-19 05:05:00,
2014-12-19 00:10:00,50.4,48.7,26.84,NW,315,0.0,-999.0,94,-99.99,,,1.38,meteohub,2014-12-19 05:10:00,
2014-12-19 00:15:00,50.4,48.7,26.84,NW,315,0.0,-999.0,94,-99.99,,,1.38,meteohub,2014-12-19 05:15:00,
2014-12-19 00:20:00,50.4,48.7,26.84,NW,315,0.0,-999.0,94,-99.99,,,1.38,meteohub,2014-12-19 05:20:00,
2014-12-19 00:25:00,50.2,48.7,26.84,NW,315,0.0,-999.0,95,-99.99,,,1.38,meteohub,2014-12-19 05:25:00,
2014-12-19 00:30:00,50.0,48.4,26.83,NW,315,0.0,-999.0,94,-99.99,,,1.38,meteohub,2014-12-19 05:30:00,
2014-12-19 00:35:00,50.0,48.4,26.83,NW,315,0.0,-999.0,94,-99.99,,,1.38,meteohub,2014-12-19 05:35:00,
2014-12-19 00:40:00,49.6,48.0,26.83,NW,315,0.0,-999.0,94,-99.99,,,1.38,meteohub,2014-12-19 05:40:00,
2014-12-19 00:45:00,49.8,48.4,26.84,NW,315,1.0,-999.0,95,-99.99,,,1.38,meteohub,2014-12-19 05:45:00,
2014-12-19 00:50:00,49.8,48.4,26.84,NW,315,0.0,-999.0,95,-99.99,,,1.38,meteohub,2014-12-19 05:50:00,
2014-12-19 00:55:00,49.8,48.4,26.84,NW,315,2.0,-999.0,95,-99.99,,,1.38,meteohub,2014-12-19 05:55:00,
2014-12-19 01:00:00,49.8,48.4,26.84,NW,315,0.0,-999.0,95,-99.99,,,1.38,meteohub,2014-12-19 06:00:00,
2014-12-19 01:05:00,49.8,48.4,26.84,NW,315,0.0,-999.0,95,-99.99,,,1.38,meteohub,2014-12-19 06:05:00,
2014-12-19 01:10:00,50.4,49.3,26.84,NW,315,2.0,-999.0,96,-99.99,,,1.38,meteohub,2014-12-19 06:10:00,
2014-12-19 01:15:00,50.4,49.3,26.84,NW,315,1.0,-999.0,96,-99.99,,,1.38,meteohub,2014-12-19 06:15:00,
2014-12-19 01:20:00,50.4,49.3,26.85,NW,315,2.0,-999.0,96,-99.99,,,1.38,meteohub,2014-12-19 06:20:00,
2014-12-19 01:25:00,50.7,49.6,26.85,NW,315,1.0,-999.0,96,-99.99,,,1.38,meteohub,2014-12-19 06:25:00,
2014-12-19 01:30:00,50.9,49.8,26.84,NW,315,0.0,-999.0,96,-99.99,,,1.38,meteohub,2014-12-19 06:30:00,
2014-12-19 01:35:00,50.5,49.5,26.84,NW,315,0.0,-999.0,96,-99.99,,,1.38,meteohub,2014-12-19 06:35:00,
2014-12-19 01:40:00,50.5,49.5,26.84,NW,315,2.0,-999.0,96,-99.99,,,1.38,meteohub,2014-12-19 06:40:00,
2014-12-19 01:45:00,50.7,49.6,26.84,NW,315,0.0,-999.0,96,-99.99,,,1.38,meteohub,2014-12-19 06:45:00,
2014-12-19 01:50:00,50.5,49.5,26.83,NW,315,0.0,-999.0,96,-99.99,,,1.38,meteohub,2014-12-19 06:50:00,
2014-12-19 01:55:00,50.5,49.5,26.83,NW,315,0.0,-999.0,96,-99.99,,,1.38,meteohub,2014-12-19 06:55:00,
2014-12-19 02:00:00,50.4,49.3,26.84,NW,315,0.0,-999.0,96,-99.99,,,1.38,meteohub,2014-12-19 07:00:00,
2014-12-19 02:05:00,50.4,49.3,26.84,NW,315,0.0,-999.0,96,-99.99,,,1.38,meteohub,2014-12-19 07:05:00,
2014-12-19 02:10:00,50.7,49.8,26.84,NW,315,1.0,-999.0,97,-99.99,,,1.38,meteohub,2014-12-19 07:10:00,
2014-12-19 02:15:00,50.7,49.8,26.84,NW,315,0.0,-999.0,97,-99.99,,,1.38,meteohub,2014-12-19 07:15:00,
2014-12-19 02:20:00,50.5,49.6,26.84,NW,315,0.0,-999.0,97,-99.99,,,1.38,meteohub,2014-12-19 07:20:00,
2014-12-19 02:25:00,50.5,49.6,26.84,NW,315,0.0,-999.0,97,-99.99,,,1.38,meteohub,2014-12-19 07:25:00,
2014-12-19 02:30:00,50.7,49.8,26.83,NW,315,0.0,-999.0,97,-99.99,,,1.38,meteohub,2014-12-19 07:30:00,
2014-12-19 02:35:00,50.5,49.6,26.83,NW,315,0.0,-999.0,97,-99.99,,,1.38,meteohub,2014-12-19 07:35:00,
2014-12-19 02:40:00,50.5,49.6,26.84,NW,315,1.0,-999.0,97,-99.99,,,1.38,meteohub,2014-12-19 07:40:00,
2014-12-19 02:45:00,50.7,49.8,26.84,NW,315,1.0,-999.0,97,-99.99,,,1.38,meteohub,2014-12-19 07:45:00,
2014-12-19 02:50:00,50.4,49.5,26.83,NW,315,0.0,-999.0,97,-99.99,,,1.38,meteohub,2014-12-19 07:50:00,
2014-12-19 02:55:00,50.5,49.6,26.83,NW,315,0.0,-999.0,97,-99.99,,,1.38,meteohub,2014-12-19 07:55:00,
2014-12-19 03:00:00,50.7,49.8,26.83,NW,315,1.0,-999.0,97,-99.99,,,1.38,meteohub,2014-12-19 08:00:00,
2014-12-19 03:05:00,50.7,49.8,26.83,NW,315,1.0,-999.0,97,-99.99,,,1.38,meteohub,2014-12-19 08:05:00,
2014-12-19 03:10:00,50.7,50.2,26.84,NW,315,1.0,-999.0,98,-99.99,,,1.38,meteohub,2014-12-19 08:10:00,
2014-12-19 03:15:00,50.9,50.4,26.84,NW,315,1.0,-999.0,98,-99.99,,,1.38,meteohub,2014-12-19 08:15:00,
2014-12-19 03:20:00,50.9,50.4,26.83,NW,315,0.0,-999.0,98,-99.99,,,1.38,meteohub,2014-12-19 08:20:00,
2014-12-19 03:25:00,50.9,50.4,26.84,NW,315,2.0,-999.0,98,-99.99,,,1.38,meteohub,2014-12-19 08:25:00,
2014-12-19 03:30:00,51.1,50.5,26.83,NW,315,1.0,-999.0,98,-99.99,,,1.38,meteohub,2014-12-19 08:30:00,
2014-12-19 03:35:00,51.1,50.5,26.83,NW,315,0.0,-999.0,98,-99.99,,,1.38,meteohub,2014-12-19 08:35:00,
2014-12-19 03:40:00,50.9,50.4,26.83,NW,315,0.0,-999.0,98,-99.99,,,1.38,meteohub,2014-12-19 08:40:00,
2014-12-19 03:45:00,50.9,50.4,26.83,NW,315,0.0,-999.0,98,-99.99,,,1.38,meteohub,2014-12-19 08:45:00,
2014-12-19 03:50:00,50.9,50.4,26.83,NW,315,1.0,-999.0,98,-99.99,,,1.38,meteohub,2014-12-19 08:50:00,
2014-12-19 03:55:00,50.9,50.4,26.83,NW,315,1.0,-999.0,98,-99.99,,,1.38,meteohub,2014-12-19 08:55:00,
2014-12-19 04:00:00,51.1,50.5,26.83,NW,315,1.0,-999.0,98,-99.99,,,1.38,meteohub,2014-12-19 09:00:00,
2014-12-19 04:05:00,51.1,50.5,26.83,NW,315,1.0,-999.0,98,-99.99,,,1.38,meteohub,2014-12-19 09:05:00,
2014-12-19 04:10:00,51.3,50.9,26.82,NW,315,0.0,-999.0,99,-99.99,,,1.38,meteohub,2014-12-19 09:10:00,
2014-12-19 04:15:00,51.3,50.9,26.82,NW,315,0.0,-999.0,99,-99.99,,,1.38,meteohub,2014-12-19 09:15:00,
2014-12-19 04:20:00,51.3,50.9,26.82,NW,315,0.0,-999.0,99,-99.99,,,1.38,meteohub,2014-12-19 09:20:00,
2014-12-19 04:25:00,51.1,50.7,26.82,NW,315,1.0,-999.0,99,-99.99,,,1.38,meteohub,2014-12-19 09:25:00,
2014-12-19 04:30:00,50.9,50.5,26.82,NW,315,0.0,-999.0,99,-99.99,,,1.38,meteohub,2014-12-19 09:30:00,
2014-12-19 04:35:00,50.7,50.4,26.82,NW,315,0.0,-999.0,99,-99.99,,,1.38,meteohub,2014-12-19 09:35:00,
2014-12-19 04:40:00,50.5,50.2,26.82,NW,315,0.0,-999.0,99,-99.99,,,1.38,meteohub,2014-12-19 09:40:00,
2014-12-19 04:45:00,50.4,50.0,26.83,NW,315,0.0,-999.0,99,-99.99,,,1.38,meteohub,2014-12-19 09:45:00,
2014-12-19 04:50:00,50.4,50.0,26.82,NW,315,0.0,-999.0,99,-99.99,,,1.38,meteohub,2014-12-19 09:50:00,
2014-12-19 04:55:00,50.0,49.6,26.82,NW,315,1.0,-999.0,99,-99.99,,,1.38,meteohub,2014-12-19 09:55:00,
2014-12-19 05:00:00,50.2,49.8,26.82,NW,315,0.0,-999.0,99,-99.99,,,1.38,meteohub,2014-12-19 10:00:00,
2014-12-19 05:05:00,50.2,49.8,26.82,NW,315,0.0,-999.0,99,-99.99,,,1.38,meteohub,2014-12-19 10:05:00,
2014-12-19 05:10:00,50.0,49.6,26.81,NW,315,0.0,-999.0,99,-99.99,,,1.38,meteohub,2014-12-19 10:10:00,
2014-12-19 05:15:00,50.0,49.6,26.82,NW,315,0.0,-999.0,99,-99.99,,,1.38,meteohub,2014-12-19 10:15:00,
2014-12-19 05:20:00,50.0,49.6,26.82,NW,315,0.0,-999.0,99,-99.99,,,1.38,meteohub,2014-12-19 10:20:00,
2014-12-19 05:25:00,50.0,49.6,26.82,NW,315,0.0,-999.0,99,-99.99,,,1.38,meteohub,2014-12-19 10:25:00,
2014-12-19 05:30:00,49.8,49.5,26.82,NW,315,0.0,-999.0,99,-99.99,,,1.38,meteohub,2014-12-19 10:30:00,
2014-12-19 05:35:00,50.0,49.6,26.82,NW,315,0.0,-999.0,99,-99.99,,,1.38,meteohub,2014-12-19 10:35:00,
2014-12-19 05:40:00,49.8,49.5,26.82,NW,315,0.0,-999.0,99,-99.99,,,1.38,meteohub,2014-12-19 10:40:00,
2014-12-19 05:45:00,49.6,49.5,26.82,NW,315,1.0,-999.0,99,-99.99,,,1.38,meteohub,2014-12-19 10:45:00,
2014-12-19 05:50:00,49.6,49.5,26.82,NW,315,0.0,-999.0,99,-99.99,,,1.38,meteohub,2014-12-19 10:50:00,
2014-12-19 05:55:00,49.6,49.5,26.82,NW,315,0.0,-999.0,99,-99.99,,,1.38,meteohub,2014-12-19 10:55:00,
2014-12-19 06:00:00,49.6,49.5,26.82,NW,315,0.0,-999.0,99,-99.99,,,1.38,meteohub,2014-12-19 11:00:00,
2014-12-19 06:05:00,49.6,49.5,26.82,NW,315,0.0,-999.0,99,-99.99,,,1.38,meteohub,2014-12-19 11:05:00,
2014-12-19 06:10:00,49.5,49.3,26.82,NW,315,0.0,-999.0,99,-99.99,,,1.38,meteohub,2014-12-19 11:10:00,
2014-12-19 06:15:00,49.5,49.3,26.82,NW,315,0.0,-999.0,99,-99.99,,,1.38,meteohub,2014-12-19 11:15:00,
2014-12-19 06:20:00,49.6,49.5,26.82,NW,315,0.0,-999.0,99,-99.99,,,1.38,meteohub,2014-12-19 11:20:00,
2014-12-19 06:25:00,49.8,49.5,26.83,NW,315,0.0,-999.0,99,-99.99,,,1.38,meteohub,2014-12-19 11:25:00,
2014-12-19 06:30:00,49.3,49.1,26.83,NW,315,1.0,-999.0,99,-99.99,,,1.38,meteohub,2014-12-19 11:30:00,
2014-12-19 06:35:00,49.3,49.1,26.83,NW,315,0.0,-999.0,99,-99.99,,,1.38,meteohub,2014-12-19 11:35:00,
2014-12-19 06:40:00,49.3,49.1,26.83,NW,315,1.0,-999.0,99,-99.99,,,1.38,meteohub,2014-12-19 11:40:00,
2014-12-19 06:45:00,49.1,48.9,26.83,NW,315,0.0,-999.0,99,-99.99,,,1.38,meteohub,2014-12-19 11:45:00,
2014-12-19 06:50:00,48.9,48.7,26.83,NW,315,1.0,-999.0,99,-99.99,,,1.38,meteohub,2014-12-19 11:50:00,
2014-12-19 06:55:00,48.7,48.6,26.84,NW,315,0.0,-999.0,99,-99.99,,,1.38,meteohub,2014-12-19 11:55:00,
2014-12-19 07:00:00,48.6,48.4,26.83,NW,315,0.0,-999.0,99,-99.99,,,1.38,meteohub,2014-12-19 12:00:00,
2014-12-19 07:05:00,48.6,48.4,26.84,NW,315,0.0,-999.0,99,-99.99,,,1.38,meteohub,2014-12-19 12:05:00,
2014-12-19 07:10:00,48.6,48.4,26.83,NW,315,1.0,-999.0,99,-99.99,,,1.38,meteohub,2014-12-19 12:10:00,
2014-12-19 07:15:00,48.6,48.4,26.83,NW,315,0.0,-999.0,99,-99.99,,,1.38,meteohub,2014-12-19 12:15:00,
2014-12-19 07:20:00,48.2,48.0,26.83,NW,315,0.0,-999.0,99,-99.99,,,1.38,meteohub,2014-12-19 12:20:00,
2014-12-19 07:25:00,48.2,48.0,26.83,NW,315,0.0,-999.0,99,-99.99,,,1.38,meteohub,2014-12-19 12:25:00,
2014-12-19 07:30:00,48.6,48.4,26.83,NW,315,0.0,-999.0,99,-99.99,,,1.38,meteohub,2014-12-19 12:30:00,
2014-12-19 07:35:00,48.6,48.4,26.84,NW,315,0.0,-999.0,99,-99.99,,,1.38,meteohub,2014-12-19 12:35:00,
2014-12-19 07:40:00,48.7,48.6,26.84,NW,315,0.0,-999.0,99,-99.99,,,1.38,meteohub,2014-12-19 12:40:00,
2014-12-19 07:45:00,48.9,48.7,26.84,NW,315,0.0,-999.0,99,-99.99,,,1.38,meteohub,2014-12-19 12:45:00,
2014-12-19 07:50:00,49.5,49.3,26.84,NW,315,0.0,-999.0,99,-99.99,,,1.38,meteohub,2014-12-19 12:50:00,
2014-12-19 07:55:00,49.8,49.5,26.84,NW,315,1.0,-999.0,99,-99.99,,,1.38,meteohub,2014-12-19 12:55:00,
2014-12-19 08:00:00,50.5,50.2,26.86,NW,315,2.0,-999.0,99,-99.99,,,1.38,meteohub,2014-12-19 13:00:00,
2014-12-19 08:05:00,52.2,51.8,26.85,NW,315,2.0,-999.0,99,-99.99,,,1.38,meteohub,2014-12-19 13:05:00,
2014-12-19 08:10:00,53.2,52.9,26.85,NW,315,1.0,-999.0,99,-99.99,,,1.38,meteohub,2014-12-19 13:10:00,
2014-12-19 08:15:00,54.7,54.3,26.86,NW,315,2.0,-999.0,99,-99.99,,,1.38,meteohub,2014-12-19 13:15:00,
2014-12-19 08:20:00,56.1,55.8,26.85,NW,315,4.0,-999.0,99,-99.99,,,1.38,meteohub,2014-12-19 13:20:00,
2014-12-19 08:25:00,57.9,57.6,26.86,NW,315,1.0,-999.0,99,-99.99,,,1.38,meteohub,2014-12-19 13:25:00,
2014-12-19 08:30:00,58.8,58.5,26.86,NW,315,2.0,-999.0,99,-99.99,,,1.38,meteohub,2014-12-19 13:30:00,
2014-12-19 08:35:00,59.4,59.0,26.86,NW,315,2.0,-999.0,99,-99.99,,,1.38,meteohub,2014-12-19 13:35:00,
2014-12-19 08:40:00,60.1,59.7,26.86,NW,315,2.0,-999.0,99,-99.99,,,1.38,meteohub,2014-12-19 13:40:00,
2014-12-19 08:45:00,61.9,61.3,26.86,NW,315,4.0,-999.0,98,-99.99,,,1.38,meteohub,2014-12-19 13:45:00,
2014-12-19 08:50:00,63.1,60.8,26.87,NW,315,3.0,-999.0,92,-99.99,,,1.38,meteohub,2014-12-19 13:50:00,
2014-12-19 08:55:00,62.1,57.7,26.86,NW,315,3.0,-999.0,86,-99.99,,,1.38,meteohub,2014-12-19 13:55:00,
2014-12-19 09:01:00,63.3,59.4,26.87,NW,315,2.0,-999.0,87,-99.99,,,1.38,meteohub,2014-12-19 14:01:00,
2014-12-19 09:06:00,65.3,59.7,26.87,NW,315,3.0,-999.0,82,-99.99,,,1.38,meteohub,2014-12-19 14:06:00,
2014-12-19 09:11:00,66.2,58.8,26.87,NW,315,2.0,-999.0,77,-99.99,,,1.38,meteohub,2014-12-19 14:11:00,
2014-12-19 09:16:00,66.7,57.4,26.87,NW,315,3.0,-999.0,72,-99.99,,,1.38,meteohub,2014-12-19 14:16:00,
2014-12-19 09:21:00,68.5,59.5,26.87,NW,315,2.0,-999.0,73,-99.99,,,1.38,meteohub,2014-12-19 14:21:00,
2014-12-19 09:26:00,68.9,57.0,26.87,NW,315,3.0,-999.0,66,-99.99,,,1.38,meteohub,2014-12-19 14:26:00,
2014-12-19 09:31:00,69.8,56.1,26.87,NW,315,4.0,-999.0,62,-99.99,,,1.38,meteohub,2014-12-19 14:31:00,
2014-12-19 09:36:00,70.3,56.7,26.88,NW,315,3.0,-999.0,62,-99.99,,,1.38,meteohub,2014-12-19 14:36:00,
2014-12-19 09:41:00,71.2,56.7,26.88,NW,315,2.0,-999.0,60,-99.99,,,1.38,meteohub,2014-12-19 14:41:00,
2014-12-19 09:46:00,71.4,54.9,26.88,NW,315,4.0,-999.0,56,-99.99,,,1.38,meteohub,2014-12-19 14:46:00,
2014-12-19 09:51:00,71.1,53.1,26.88,NW,315,2.0,-999.0,53,-99.99,,,1.38,meteohub,2014-12-19 14:51:00,
2014-12-19 09:56:00,70.9,52.3,26.88,NW,315,3.0,-999.0,52,-99.99,,,1.38,meteohub,2014-12-19 14:56:00,
2014-12-19 10:01:00,71.4,53.4,26.88,NW,315,1.0,-999.0,53,-99.99,,,1.38,meteohub,2014-12-19 15:01:00,
2014-12-19 10:06:00,72.9,54.1,26.88,NW,315,2.0,-999.0,52,-99.99,,,1.38,meteohub,2014-12-19 15:06:00,
2014-12-19 10:11:00,73.2,52.3,26.88,NW,315,2.0,-999.0,48,-99.99,,,1.38,meteohub,2014-12-19 15:11:00,
2014-12-19 10:16:00,73.0,51.6,26.88,NW,315,4.0,-999.0,47,-99.99,,,1.38,meteohub,2014-12-19 15:16:00,
2014-12-19 10:21:00,73.4,51.4,26.88,NW,315,3.0,-999.0,46,-99.99,,,1.38,meteohub,2014-12-19 15:21:00,
2014-12-19 10:26:00,74.1,52.5,26.87,NW,315,2.0,-999.0,47,-99.99,,,1.38,meteohub,2014-12-19 15:26:00,
2014-12-19 10:31:00,73.0,49.3,26.87,NW,315,5.0,-999.0,43,-99.99,,,1.38,meteohub,2014-12-19 15:31:00,
2014-12-19 10:36:00,73.2,51.8,26.87,NW,315,1.0,-999.0,47,-99.99,,,1.38,meteohub,2014-12-19 15:36:00,
2014-12-19 10:41:00,74.7,50.7,26.87,NW,315,4.0,-999.0,43,-99.99,,,1.38,meteohub,2014-12-19 15:41:00,
2014-12-19 10:46:00,75.0,51.1,26.86,NW,315,2.0,-999.0,43,-99.99,,,1.38,meteohub,2014-12-19 15:46:00,
2014-12-19 10:51:00,76.5,50.4,26.86,NW,315,2.0,-999.0,40,-99.99,,,1.38,meteohub,2014-12-19 15:51:00,
2014-12-19 10:56:00,77.4,48.4,26.85,NW,315,5.0,-999.0,36,-99.99,,,1.38,meteohub,2014-12-19 15:56:00,
2014-12-19 11:01:00,76.5,46.8,26.86,NW,315,2.0,-999.0,35,-99.99,,,1.38,meteohub,2014-12-19 16:01:00,
2014-12-19 11:06:00,76.6,47.7,26.85,NW,315,3.0,-999.0,36,-99.99,,,1.38,meteohub,2014-12-19 16:06:00,
2014-12-19 11:11:00,77.5,47.7,26.85,NW,315,4.0,-999.0,35,-99.99,,,1.38,meteohub,2014-12-19 16:11:00,
2014-12-19 11:16:00,77.5,46.9,26.85,NW,315,4.0,-999.0,34,-99.99,,,1.38,meteohub,2014-12-19 16:16:00,
2014-12-19 11:21:00,76.1,47.1,26.85,NW,315,3.0,-999.0,36,-99.99,,,1.38,meteohub,2014-12-19 16:21:00,
2014-12-19 11:26:00,75.0,47.7,26.84,NW,315,3.0,-999.0,38,-99.99,,,1.38,meteohub,2014-12-19 16:26:00,
2014-12-19 11:32:00,74.7,49.5,26.84,NW,315,2.0,-999.0,41,-99.99,,,1.38,meteohub,2014-12-19 16:32:00,
2014-12-19 11:37:00,75.0,48.4,26.84,NW,315,4.0,-999.0,39,-99.99,,,1.38,meteohub,2014-12-19 16:37:00,
2014-12-19 11:42:00,74.3,48.4,26.84,NW,315,5.0,-999.0,40,-99.99,,,1.38,meteohub,2014-12-19 16:42:00,
2014-12-19 11:47:00,74.7,48.0,26.83,NW,315,4.0,-999.0,39,-99.99,,,1.38,meteohub,2014-12-19 16:47:00,
2014-12-19 11:52:00,74.3,49.1,26.83,NW,315,3.0,-999.0,41,-99.99,,,1.38,meteohub,2014-12-19 16:52:00,
2014-12-19 11:57:00,75.6,47.5,26.84,NW,315,4.0,-999.0,37,-99.99,,,1.38,meteohub,2014-12-19 16:57:00,
2014-12-19 12:02:00,74.7,48.0,26.84,NW,315,5.0,-999.0,39,-99.99,,,1.38,meteohub,2014-12-19 17:02:00,
2014-12-19 12:07:00,74.3,49.1,26.83,NW,315,2.0,-999.0,41,-99.99,,,1.38,meteohub,2014-12-19 17:07:00,
2014-12-19 12:12:00,76.1,50.7,26.84,NW,315,5.0,-999.0,41,-99.99,,,1.38,meteohub,2014-12-19 17:12:00,
2014-12-19 12:17:00,76.1,51.3,26.82,NW,315,2.0,-999.0,42,-99.99,,,1.38,meteohub,2014-12-19 17:17:00,
2014-12-19 12:22:00,77.0,51.4,26.83,NW,315,2.0,-999.0,41,-99.99,,,1.38,meteohub,2014-12-19 17:22:00,
2014-12-19 12:27:00,77.4,50.5,26.82,NW,315,2.0,-999.0,39,-99.99,,,1.38,meteohub,2014-12-19 17:27:00,
2014-12-19 12:32:00,77.9,50.9,26.82,NW,315,4.0,-999.0,39,-99.99,,,1.38,meteohub,2014-12-19 17:32:00,
2014-12-19 12:37:00,77.4,49.1,26.82,NW,315,6.0,-999.0,37,-99.99,,,1.38,meteohub,2014-12-19 17:37:00,
2014-12-19 12:42:00,76.8,49.3,26.81,NW,315,2.0,-999.0,38,-99.99,,,1.38,meteohub,2014-12-19 17:42:00,
2014-12-19 12:47:00,76.3,47.3,26.81,NW,315,6.0,-999.0,36,-99.99,,,1.38,meteohub,2014-12-19 17:47:00,
2014-12-19 12:52:00,76.5,48.2,26.80,NW,315,2.0,-999.0,37,-99.99,,,1.38,meteohub,2014-12-19 17:52:00,
2014-12-19 12:57:00,77.2,48.2,26.81,NW,315,5.0,-999.0,36,-99.99,,,1.38,meteohub,2014-12-19 17:57:00,
2014-12-19 13:02:00,76.6,47.7,26.81,NW,315,2.0,-999.0,36,-99.99,,,1.38,meteohub,2014-12-19 18:02:00,
2014-12-19 13:07:00,75.9,49.1,26.80,NW,315,4.0,-999.0,39,-99.99,,,1.38,meteohub,2014-12-19 18:07:00,
2014-12-19 13:12:00,75.9,49.8,26.80,NW,315,2.0,-999.0,40,-99.99,,,1.38,meteohub,2014-12-19 18:12:00,
2014-12-19 13:17:00,76.6,49.8,26.80,NW,315,4.0,-999.0,39,-99.99,,,1.38,meteohub,2014-12-19 18:17:00,
2014-12-19 13:22:00,76.8,49.3,26.80,NW,315,2.0,-999.0,38,-99.99,,,1.38,meteohub,2014-12-19 18:22:00,
2014-12-19 13:27:00,77.0,48.7,26.79,NW,315,2.0,-999.0,37,-99.99,,,1.38,meteohub,2014-12-19 18:27:00,
2014-12-19 13:32:00,77.4,48.4,26.79,NW,315,3.0,-999.0,36,-99.99,,,1.38,meteohub,2014-12-19 18:32:00,
2014-12-19 13:37:00,77.2,48.2,26.79,NW,315,3.0,-999.0,36,-99.99,,,1.38,meteohub,2014-12-19 18:37:00,
2014-12-19 13:42:00,77.2,48.9,26.79,NW,315,4.0,-999.0,37,-99.99,,,1.38,meteohub,2014-12-19 18:42:00,
2014-12-19 13:47:00,77.0,49.5,26.79,NW,315,2.0,-999.0,38,-99.99,,,1.38,meteohub,2014-12-19 18:47:00,
2014-12-19 13:52:00,77.5,50.0,26.79,NW,315,2.0,-999.0,38,-99.99,,,1.38,meteohub,2014-12-19 18:52:00,
2014-12-19 13:57:00,77.0,50.2,26.77,NW,315,5.0,-999.0,39,-99.99,,,1.38,meteohub,2014-12-19 18:57:00,
2014-12-19 14:02:00,76.8,50.0,26.78,NW,315,2.0,-999.0,39,-99.99,,,1.38,meteohub,2014-12-19 19:02:00,
2014-12-19 14:07:00,77.2,49.6,26.78,NW,315,2.0,-999.0,38,-99.99,,,1.38,meteohub,2014-12-19 19:07:00,
2014-12-19 14:12:00,76.5,48.9,26.78,NW,315,5.0,-999.0,38,-99.99,,,1.38,meteohub,2014-12-19 19:12:00,
2014-12-19 14:17:00,77.0,49.5,26.78,NW,315,6.0,-999.0,38,-99.99,,,1.38,meteohub,2014-12-19 19:17:00,
2014-12-19 14:22:00,75.9,49.1,26.78,NW,315,3.0,-999.0,39,-99.99,,,1.38,meteohub,2014-12-19 19:22:00,
2014-12-19 14:27:00,76.3,50.2,26.78,NW,315,6.0,-999.0,40,-99.99,,,1.38,meteohub,2014-12-19 19:27:00,
2014-12-19 14:33:00,76.3,50.2,26.78,NW,315,3.0,-999.0,40,-99.99,,,1.38,meteohub,2014-12-19 19:33:00,
2014-12-19 14:38:00,77.0,50.9,26.78,NW,315,4.0,-999.0,40,-99.99,,,1.38,meteohub,2014-12-19 19:38:00,
2014-12-19 14:43:00,76.8,49.3,26.77,NW,315,5.0,-999.0,38,-99.99,,,1.38,meteohub,2014-12-19 19:43:00,
2014-12-19 14:48:00,76.5,49.6,26.77,NW,315,4.0,-999.0,39,-99.99,,,1.38,meteohub,2014-12-19 19:48:00,
2014-12-19 14:53:00,76.1,50.0,26.77,NW,315,2.0,-999.0,40,-99.99,,,1.38,meteohub,2014-12-19 19:53:00,
2014-12-19 14:58:00,76.1,48.6,26.77,NW,315,4.0,-999.0,38,-99.99,,,1.38,meteohub,2014-12-19 19:58:00,
2014-12-19 15:03:00,75.7,48.4,26.77,NW,315,3.0,-999.0,38,-99.99,,,1.38,meteohub,2014-12-19 20:03:00,
2014-12-19 15:08:00,76.3,49.5,26.77,NW,315,2.0,-999.0,39,-99.99,,,1.38,meteohub,2014-12-19 20:08:00,
2014-12-19 15:13:00,76.1,48.0,26.77,NW,315,4.0,-999.0,37,-99.99,,,1.38,meteohub,2014-12-19 20:13:00,
2014-12-19 15:18:00,75.7,48.4,26.77,NW,315,4.0,-999.0,38,-99.99,,,1.38,meteohub,2014-12-19 20:18:00,
2014-12-19 15:23:00,75.4,48.0,26.77,NW,315,4.0,-999.0,38,-99.99,,,1.38,meteohub,2014-12-19 20:23:00,
2014-12-19 15:28:00,75.0,48.4,26.77,NW,315,4.0,-999.0,39,-99.99,,,1.38,meteohub,2014-12-19 20:28:00,
2014-12-19 15:33:00,75.6,48.9,26.77,NW,315,5.0,-999.0,39,-99.99,,,1.38,meteohub,2014-12-19 20:33:00,
2014-12-19 15:38:00,74.8,47.5,26.77,NW,315,7.0,-999.0,38,-99.99,,,1.38,meteohub,2014-12-19 20:38:00,
2014-12-19 15:43:00,74.3,47.7,26.77,NW,315,4.0,-999.0,39,-99.99,,,1.38,meteohub,2014-12-19 20:43:00,
2014-12-19 15:48:00,74.7,49.5,26.77,NW,315,2.0,-999.0,41,-99.99,,,1.38,meteohub,2014-12-19 20:48:00,
2014-12-19 15:53:00,75.2,49.3,26.77,NW,315,3.0,-999.0,40,-99.99,,,1.38,meteohub,2014-12-19 20:53:00,
2014-12-19 15:58:00,75.0,49.1,26.77,NW,315,2.0,-999.0,40,-99.99,,,1.38,meteohub,2014-12-19 20:58:00,
2014-12-19 16:03:00,75.2,48.6,26.77,NW,315,2.0,-999.0,39,-99.99,,,1.38,meteohub,2014-12-19 21:03:00,
2014-12-19 16:08:00,75.2,48.6,26.77,NW,315,2.0,-999.0,39,-99.99,,,1.38,meteohub,2014-12-19 21:08:00,
2014-12-19 16:13:00,74.8,48.9,26.78,NW,315,4.0,-999.0,40,-99.99,,,1.38,meteohub,2014-12-19 21:13:00,
2014-12-19 16:18:00,74.1,48.9,26.77,NW,315,2.0,-999.0,41,-99.99,,,1.38,meteohub,2014-12-19 21:18:00,
2014-12-19 16:23:00,74.5,49.8,26.77,NW,315,2.0,-999.0,42,-99.99,,,1.38,meteohub,2014-12-19 21:23:00,